sensor_id;sensor_type;location;lat;lon;timestamp;P1;durP1;ratioP1;P2;durP2;ratioP2
33824;SDS011;20127;48.962;8.342;2023-04-07T00:01:35;5.43;;;4.93;;
33824;SDS011;20127;48.962;8.342;2023-04-07T00:04:37;6.00;;;5.50;;
33824;SDS011;20127;48.962;8.342;2023-04-07T00:07:44;5.28;;;4.80;;
33824;SDS011;20127;48.962;8.342;2023-04-07T00:10:45;4.15;;;3.85;;
33824;SDS011;20127;48.962;8.342;2023-04-07T00:13:51;5.10;;;4.32;;
33824;SDS011;20127;48.962;8.342;2023-04-07T00:16:53;4.18;;;3.80;;
33824;SDS011;20127;48.962;8.342;2023-04-07T00:19:57;4.40;;;4.03;;
33824;SDS011;20127;48.962;8.342;2023-04-07T00:22:59;5.13;;;4.65;;
33824;SDS011;20127;48.962;8.342;2023-04-07T00:26:13;4.90;;;4.50;;
33824;SDS011;20127;48.962;8.342;2023-04-07T00:29:16;4.22;;;3.83;;
33824;SDS011;20127;48.962;8.342;2023-04-07T00:32:17;4.50;;;4.10;;
33824;SDS011;20127;48.962;8.342;2023-04-07T00:35:19;6.30;;;4.10;;
33824;SDS011;20127;48.962;8.342;2023-04-07T00:38:21;4.75;;;3.92;;
33824;SDS011;20127;48.962;8.342;2023-04-07T00:41:23;5.22;;;4.10;;
33824;SDS011;20127;48.962;8.342;2023-04-07T00:44:26;4.03;;;3.72;;
33824;SDS011;20127;48.962;8.342;2023-04-07T00:47:28;4.50;;;4.13;;
33824;SDS011;20127;48.962;8.342;2023-04-07T00:50:30;4.57;;;4.18;;
33824;SDS011;20127;48.962;8.342;2023-04-07T00:53:31;3.88;;;3.58;;
33824;SDS011;20127;48.962;8.342;2023-04-07T00:56:33;4.15;;;3.75;;
33824;SDS011;20127;48.962;8.342;2023-04-07T00:59:36;4.60;;;4.25;;
33824;SDS011;20127;48.962;8.342;2023-04-07T01:02:40;6.43;;;3.72;;
33824;SDS011;20127;48.962;8.342;2023-04-07T01:05:45;4.43;;;4.03;;
33824;SDS011;20127;48.962;8.342;2023-04-07T01:08:56;4.57;;;4.18;;
33824;SDS011;20127;48.962;8.342;2023-04-07T01:12:04;4.75;;;4.22;;
33824;SDS011;20127;48.962;8.342;2023-04-07T01:15:13;3.78;;;3.47;;
33824;SDS011;20127;48.962;8.342;2023-04-07T01:18:21;4.78;;;4.00;;
33824;SDS011;20127;48.962;8.342;2023-04-07T01:21:28;6.03;;;4.45;;
33824;SDS011;20127;48.962;8.342;2023-04-07T01:24:40;4.65;;;3.92;;
33824;SDS011;20127;48.962;8.342;2023-04-07T01:27:58;5.28;;;3.90;;
33824;SDS011;20127;48.962;8.342;2023-04-07T01:31:12;5.10;;;4.43;;
33824;SDS011;20127;48.962;8.342;2023-04-07T01:34:15;3.78;;;3.47;;
33824;SDS011;20127;48.962;8.342;2023-04-07T01:37:18;3.45;;;3.22;;
33824;SDS011;20127;48.962;8.342;2023-04-07T01:40:21;6.70;;;4.65;;
33824;SDS011;20127;48.962;8.342;2023-04-07T01:43:25;4.50;;;4.03;;
33824;SDS011;20127;48.962;8.342;2023-04-07T01:46:29;4.60;;;4.20;;
33824;SDS011;20127;48.962;8.342;2023-04-07T01:49:30;4.85;;;4.07;;
33824;SDS011;20127;48.962;8.342;2023-04-07T01:52:34;4.82;;;4.25;;
33824;SDS011;20127;48.962;8.342;2023-04-07T01:55:36;4.50;;;4.10;;
33824;SDS011;20127;48.962;8.342;2023-04-07T01:58:38;5.15;;;4.32;;
33824;SDS011;20127;48.962;8.342;2023-04-07T02:01:41;4.90;;;4.50;;
33824;SDS011;20127;48.962;8.342;2023-04-07T02:04:43;4.32;;;4.03;;
33824;SDS011;20127;48.962;8.342;2023-04-07T02:07:52;4.95;;;4.55;;
33824;SDS011;20127;48.962;8.342;2023-04-07T02:10:59;4.38;;;4.00;;
33824;SDS011;20127;48.962;8.342;2023-04-07T02:14:03;4.30;;;3.90;;
33824;SDS011;20127;48.962;8.342;2023-04-07T02:17:07;4.90;;;3.38;;
33824;SDS011;20127;48.962;8.342;2023-04-07T02:20:10;8.10;;;4.85;;
33824;SDS011;20127;48.962;8.342;2023-04-07T02:23:13;3.90;;;3.60;;
33824;SDS011;20127;48.962;8.342;2023-04-07T02:26:16;4.30;;;4.00;;
33824;SDS011;20127;48.962;8.342;2023-04-07T02:29:18;3.33;;;3.03;;
33824;SDS011;20127;48.962;8.342;2023-04-07T02:32:21;7.07;;;4.10;;
33824;SDS011;20127;48.962;8.342;2023-04-07T02:35:23;4.03;;;3.63;;
33824;SDS011;20127;48.962;8.342;2023-04-07T02:38:24;3.88;;;3.30;;
33824;SDS011;20127;48.962;8.342;2023-04-07T02:41:26;4.32;;;3.92;;
33824;SDS011;20127;48.962;8.342;2023-04-07T02:44:28;3.58;;;3.28;;
33824;SDS011;20127;48.962;8.342;2023-04-07T02:47:31;3.78;;;3.47;;
33824;SDS011;20127;48.962;8.342;2023-04-07T02:50:33;4.53;;;4.20;;
33824;SDS011;20127;48.962;8.342;2023-04-07T02:53:35;4.50;;;4.20;;
33824;SDS011;20127;48.962;8.342;2023-04-07T02:56:36;4.30;;;4.00;;
33824;SDS011;20127;48.962;8.342;2023-04-07T02:59:38;4.13;;;3.83;;
33824;SDS011;20127;48.962;8.342;2023-04-07T03:02:41;4.38;;;3.75;;
33824;SDS011;20127;48.962;8.342;2023-04-07T03:05:43;4.85;;;3.45;;
33824;SDS011;20127;48.962;8.342;2023-04-07T03:08:44;5.32;;;4.65;;
33824;SDS011;20127;48.962;8.342;2023-04-07T03:11:46;5.28;;;4.82;;
33824;SDS011;20127;48.962;8.342;2023-04-07T03:14:48;4.55;;;4.10;;
33824;SDS011;20127;48.962;8.342;2023-04-07T03:17:51;5.45;;;4.53;;
33824;SDS011;20127;48.962;8.342;2023-04-07T03:20:53;5.50;;;4.45;;
33824;SDS011;20127;48.962;8.342;2023-04-07T03:23:55;5.30;;;4.80;;
33824;SDS011;20127;48.962;8.342;2023-04-07T03:26:56;5.90;;;5.40;;
33824;SDS011;20127;48.962;8.342;2023-04-07T03:29:58;7.03;;;6.38;;
33824;SDS011;20127;48.962;8.342;2023-04-07T03:33:01;5.85;;;5.32;;
33824;SDS011;20127;48.962;8.342;2023-04-07T03:36:03;4.60;;;3.75;;
33824;SDS011;20127;48.962;8.342;2023-04-07T03:39:05;5.57;;;4.65;;
33824;SDS011;20127;48.962;8.342;2023-04-07T03:42:07;6.03;;;5.45;;
33824;SDS011;20127;48.962;8.342;2023-04-07T03:45:09;4.68;;;4.38;;
33824;SDS011;20127;48.962;8.342;2023-04-07T03:48:12;3.90;;;3.60;;
33824;SDS011;20127;48.962;8.342;2023-04-07T03:51:14;7.82;;;4.07;;
33824;SDS011;20127;48.962;8.342;2023-04-07T03:54:16;5.97;;;4.68;;
33824;SDS011;20127;48.962;8.342;2023-04-07T03:57:17;5.53;;;5.03;;
33824;SDS011;20127;48.962;8.342;2023-04-07T04:00:19;4.95;;;4.40;;
33824;SDS011;20127;48.962;8.342;2023-04-07T04:03:23;4.60;;;3.88;;
33824;SDS011;20127;48.962;8.342;2023-04-07T04:06:24;4.38;;;4.05;;
33824;SDS011;20127;48.962;8.342;2023-04-07T04:09:26;5.25;;;3.95;;
33824;SDS011;20127;48.962;8.342;2023-04-07T04:12:28;3.97;;;3.67;;
33824;SDS011;20127;48.962;8.342;2023-04-07T04:15:30;4.63;;;4.07;;
33824;SDS011;20127;48.962;8.342;2023-04-07T04:18:33;3.58;;;3.28;;
33824;SDS011;20127;48.962;8.342;2023-04-07T04:21:35;4.80;;;4.18;;
33824;SDS011;20127;48.962;8.342;2023-04-07T04:24:37;3.95;;;3.60;;
33824;SDS011;20127;48.962;8.342;2023-04-07T04:27:40;4.00;;;3.70;;
33824;SDS011;20127;48.962;8.342;2023-04-07T04:30:42;4.82;;;3.55;;
33824;SDS011;20127;48.962;8.342;2023-04-07T04:33:45;4.50;;;4.20;;
33824;SDS011;20127;48.962;8.342;2023-04-07T04:36:47;3.90;;;3.60;;
33824;SDS011;20127;48.962;8.342;2023-04-07T04:39:49;4.15;;;3.85;;
33824;SDS011;20127;48.962;8.342;2023-04-07T04:42:50;3.85;;;3.55;;
33824;SDS011;20127;48.962;8.342;2023-04-07T04:45:53;4.20;;;3.72;;
33824;SDS011;20127;48.962;8.342;2023-04-07T04:48:56;4.18;;;3.88;;
33824;SDS011;20127;48.962;8.342;2023-04-07T04:51:58;4.93;;;4.47;;
33824;SDS011;20127;48.962;8.342;2023-04-07T04:55:00;6.57;;;5.80;;
33824;SDS011;20127;48.962;8.342;2023-04-07T04:58:02;4.63;;;4.22;;
33824;SDS011;20127;48.962;8.342;2023-04-07T05:01:03;4.40;;;4.10;;
33824;SDS011;20127;48.962;8.342;2023-04-07T05:04:06;4.97;;;4.55;;
33824;SDS011;20127;48.962;8.342;2023-04-07T05:07:09;4.78;;;4.38;;
33824;SDS011;20127;48.962;8.342;2023-04-07T05:10:10;6.60;;;3.65;;
33824;SDS011;20127;48.962;8.342;2023-04-07T05:13:12;4.72;;;4.13;;
33824;SDS011;20127;48.962;8.342;2023-04-07T05:16:14;5.10;;;4.68;;
33824;SDS011;20127;48.962;8.342;2023-04-07T05:19:17;4.65;;;4.25;;
33824;SDS011;20127;48.962;8.342;2023-04-07T05:22:19;4.25;;;3.85;;
33824;SDS011;20127;48.962;8.342;2023-04-07T05:25:20;5.40;;;4.90;;
33824;SDS011;20127;48.962;8.342;2023-04-07T05:28:22;4.32;;;3.92;;
33824;SDS011;20127;48.962;8.342;2023-04-07T05:31:24;5.32;;;4.93;;
33824;SDS011;20127;48.962;8.342;2023-04-07T05:34:27;6.32;;;4.97;;
33824;SDS011;20127;48.962;8.342;2023-04-07T05:37:29;5.15;;;4.65;;
33824;SDS011;20127;48.962;8.342;2023-04-07T05:40:31;4.53;;;4.13;;
33824;SDS011;20127;48.962;8.342;2023-04-07T05:43:32;7.72;;;4.72;;
33824;SDS011;20127;48.962;8.342;2023-04-07T05:46:34;4.35;;;3.95;;
33824;SDS011;20127;48.962;8.342;2023-04-07T05:49:37;4.85;;;4.45;;
33824;SDS011;20127;48.962;8.342;2023-04-07T05:52:44;4.47;;;4.07;;
33824;SDS011;20127;48.962;8.342;2023-04-07T05:55:46;4.03;;;3.70;;
33824;SDS011;20127;48.962;8.342;2023-04-07T05:58:48;4.63;;;4.22;;
33824;SDS011;20127;48.962;8.342;2023-04-07T06:01:49;4.78;;;4.28;;
33824;SDS011;20127;48.962;8.342;2023-04-07T06:04:54;4.70;;;4.28;;
33824;SDS011;20127;48.962;8.342;2023-04-07T06:07:56;4.07;;;3.75;;
33824;SDS011;20127;48.962;8.342;2023-04-07T06:10:57;5.13;;;4.72;;
33824;SDS011;20127;48.962;8.342;2023-04-07T06:14:00;4.70;;;4.13;;
33824;SDS011;20127;48.962;8.342;2023-04-07T06:17:02;4.53;;;3.25;;
33824;SDS011;20127;48.962;8.342;2023-04-07T06:20:06;5.70;;;4.45;;
33824;SDS011;20127;48.962;8.342;2023-04-07T06:23:08;12.73;;;6.25;;
33824;SDS011;20127;48.962;8.342;2023-04-07T06:26:10;5.53;;;4.85;;
33824;SDS011;20127;48.962;8.342;2023-04-07T06:29:12;4.00;;;3.58;;
33824;SDS011;20127;48.962;8.342;2023-04-07T06:32:14;5.97;;;4.90;;
33824;SDS011;20127;48.962;8.342;2023-04-07T06:35:17;6.05;;;5.45;;
33824;SDS011;20127;48.962;8.342;2023-04-07T06:38:19;5.07;;;4.57;;
33824;SDS011;20127;48.962;8.342;2023-04-07T06:41:21;5.35;;;4.85;;
33824;SDS011;20127;48.962;8.342;2023-04-07T06:44:22;5.43;;;5.03;;
33824;SDS011;20127;48.962;8.342;2023-04-07T06:47:24;4.80;;;4.40;;
33824;SDS011;20127;48.962;8.342;2023-04-07T06:50:27;4.75;;;4.18;;
33824;SDS011;20127;48.962;8.342;2023-04-07T06:53:29;5.90;;;4.20;;
33824;SDS011;20127;48.962;8.342;2023-04-07T06:56:30;4.85;;;4.45;;
33824;SDS011;20127;48.962;8.342;2023-04-07T06:59:33;4.40;;;3.97;;
33824;SDS011;20127;48.962;8.342;2023-04-07T07:02:34;4.97;;;4.45;;
33824;SDS011;20127;48.962;8.342;2023-04-07T07:05:38;8.77;;;4.82;;
33824;SDS011;20127;48.962;8.342;2023-04-07T07:08:40;4.40;;;4.00;;
33824;SDS011;20127;48.962;8.342;2023-04-07T07:11:43;5.47;;;3.90;;
33824;SDS011;20127;48.962;8.342;2023-04-07T07:14:45;3.53;;;3.20;;
33824;SDS011;20127;48.962;8.342;2023-04-07T07:17:46;5.53;;;4.75;;
33824;SDS011;20127;48.962;8.342;2023-04-07T07:20:49;4.18;;;3.80;;
33824;SDS011;20127;48.962;8.342;2023-04-07T07:23:51;5.35;;;4.82;;
33824;SDS011;20127;48.962;8.342;2023-04-07T07:26:53;4.47;;;4.00;;
33824;SDS011;20127;48.962;8.342;2023-04-07T07:29:55;5.43;;;3.88;;
33824;SDS011;20127;48.962;8.342;2023-04-07T07:32:57;4.18;;;3.78;;
33824;SDS011;20127;48.962;8.342;2023-04-07T07:36:00;2.80;;;2.53;;
33824;SDS011;20127;48.962;8.342;2023-04-07T07:39:02;4.30;;;4.00;;
33824;SDS011;20127;48.962;8.342;2023-04-07T07:42:04;3.65;;;3.35;;
33824;SDS011;20127;48.962;8.342;2023-04-07T07:45:06;3.90;;;3.47;;
33824;SDS011;20127;48.962;8.342;2023-04-07T07:48:14;6.38;;;4.65;;
33824;SDS011;20127;48.962;8.342;2023-04-07T07:51:17;4.25;;;3.95;;
33824;SDS011;20127;48.962;8.342;2023-04-07T07:54:19;4.43;;;4.03;;
33824;SDS011;20127;48.962;8.342;2023-04-07T07:57:21;3.83;;;3.53;;
33824;SDS011;20127;48.962;8.342;2023-04-07T08:00:22;3.83;;;3.60;;
33824;SDS011;20127;48.962;8.342;2023-04-07T08:03:24;3.90;;;3.60;;
33824;SDS011;20127;48.962;8.342;2023-04-07T08:06:27;3.97;;;3.55;;
33824;SDS011;20127;48.962;8.342;2023-04-07T08:09:30;5.43;;;4.93;;
33824;SDS011;20127;48.962;8.342;2023-04-07T08:12:34;4.55;;;4.15;;
33824;SDS011;20127;48.962;8.342;2023-04-07T08:15:36;5.13;;;3.78;;
33824;SDS011;20127;48.962;8.342;2023-04-07T08:18:39;3.75;;;3.40;;
33824;SDS011;20127;48.962;8.342;2023-04-07T08:21:42;4.65;;;3.80;;
33824;SDS011;20127;48.962;8.342;2023-04-07T08:24:43;4.90;;;3.28;;
33824;SDS011;20127;48.962;8.342;2023-04-07T08:27:46;3.72;;;3.42;;
33824;SDS011;20127;48.962;8.342;2023-04-07T08:30:48;7.47;;;3.50;;
33824;SDS011;20127;48.962;8.342;2023-04-07T08:33:49;3.22;;;2.92;;
33824;SDS011;20127;48.962;8.342;2023-04-07T08:36:54;3.50;;;3.20;;
33824;SDS011;20127;48.962;8.342;2023-04-07T08:39:56;4.07;;;3.70;;
33824;SDS011;20127;48.962;8.342;2023-04-07T08:42:57;5.05;;;3.88;;
33824;SDS011;20127;48.962;8.342;2023-04-07T08:46:01;5.07;;;4.38;;
33824;SDS011;20127;48.962;8.342;2023-04-07T08:49:03;10.48;;;8.88;;
33824;SDS011;20127;48.962;8.342;2023-04-07T08:52:10;4.03;;;3.10;;
33824;SDS011;20127;48.962;8.342;2023-04-07T08:55:16;11.75;;;10.70;;
33824;SDS011;20127;48.962;8.342;2023-04-07T08:58:18;5.85;;;3.50;;
33824;SDS011;20127;48.962;8.342;2023-04-07T09:01:20;3.55;;;3.20;;
33824;SDS011;20127;48.962;8.342;2023-04-07T09:04:23;3.90;;;3.13;;
33824;SDS011;20127;48.962;8.342;2023-04-07T09:07:27;3.78;;;3.45;;
33824;SDS011;20127;48.962;8.342;2023-04-07T09:10:30;7.15;;;3.72;;
33824;SDS011;20127;48.962;8.342;2023-04-07T09:13:32;4.22;;;3.50;;
33824;SDS011;20127;48.962;8.342;2023-04-07T09:16:34;5.25;;;3.83;;
33824;SDS011;20127;48.962;8.342;2023-04-07T09:19:36;4.57;;;3.40;;
33824;SDS011;20127;48.962;8.342;2023-04-07T09:22:40;4.50;;;3.47;;
33824;SDS011;20127;48.962;8.342;2023-04-07T09:25:44;4.07;;;3.60;;
33824;SDS011;20127;48.962;8.342;2023-04-07T09:28:46;3.95;;;3.30;;
33824;SDS011;20127;48.962;8.342;2023-04-07T09:31:49;3.22;;;2.85;;
33824;SDS011;20127;48.962;8.342;2023-04-07T09:34:57;3.33;;;3.03;;
33824;SDS011;20127;48.962;8.342;2023-04-07T09:38:01;12.80;;;3.08;;
33824;SDS011;20127;48.962;8.342;2023-04-07T09:41:04;2.47;;;2.03;;
33824;SDS011;20127;48.962;8.342;2023-04-07T09:44:07;2.58;;;2.30;;
33824;SDS011;20127;48.962;8.342;2023-04-07T09:47:10;1.30;;;1.17;;
33824;SDS011;20127;48.962;8.342;2023-04-07T09:50:12;1.30;;;1.20;;
33824;SDS011;20127;48.962;8.342;2023-04-07T09:53:15;1.92;;;1.17;;
33824;SDS011;20127;48.962;8.342;2023-04-07T09:56:18;1.33;;;1.23;;
33824;SDS011;20127;48.962;8.342;2023-04-07T09:59:21;1.63;;;1.33;;
33824;SDS011;20127;48.962;8.342;2023-04-07T10:02:23;1.58;;;1.48;;
33824;SDS011;20127;48.962;8.342;2023-04-07T10:05:25;0.93;;;0.93;;
33824;SDS011;20127;48.962;8.342;2023-04-07T10:08:29;2.13;;;1.17;;
33824;SDS011;20127;48.962;8.342;2023-04-07T10:11:35;3.35;;;1.35;;
33824;SDS011;20127;48.962;8.342;2023-04-07T10:14:37;1.02;;;0.93;;
33824;SDS011;20127;48.962;8.342;2023-04-07T10:17:39;1.80;;;1.23;;
33824;SDS011;20127;48.962;8.342;2023-04-07T10:20:46;1.40;;;1.30;;
33824;SDS011;20127;48.962;8.342;2023-04-07T10:23:52;1.00;;;0.90;;
33824;SDS011;20127;48.962;8.342;2023-04-07T10:27:03;2.13;;;1.77;;
33824;SDS011;20127;48.962;8.342;2023-04-07T10:30:11;1.33;;;1.23;;
33824;SDS011;20127;48.962;8.342;2023-04-07T10:33:15;2.80;;;1.50;;
33824;SDS011;20127;48.962;8.342;2023-04-07T10:36:17;2.00;;;1.60;;
33824;SDS011;20127;48.962;8.342;2023-04-07T10:39:22;1.77;;;1.10;;
33824;SDS011;20127;48.962;8.342;2023-04-07T10:45:50;5.68;;;2.55;;
33824;SDS011;20127;48.962;8.342;2023-04-07T10:49:06;3.63;;;2.88;;
33824;SDS011;20127;48.962;8.342;2023-04-07T10:52:21;3.50;;;1.67;;
33824;SDS011;20127;48.962;8.342;2023-04-07T10:55:29;4.35;;;2.08;;
33824;SDS011;20127;48.962;8.342;2023-04-07T10:58:35;3.63;;;2.15;;
33824;SDS011;20127;48.962;8.342;2023-04-07T11:01:37;2.33;;;2.00;;
33824;SDS011;20127;48.962;8.342;2023-04-07T11:04:39;2.50;;;2.30;;
33824;SDS011;20127;48.962;8.342;2023-04-07T11:07:42;3.33;;;1.65;;
33824;SDS011;20127;48.962;8.342;2023-04-07T11:10:51;3.88;;;1.75;;
33824;SDS011;20127;48.962;8.342;2023-04-07T11:13:53;4.28;;;2.33;;
33824;SDS011;20127;48.962;8.342;2023-04-07T11:16:54;2.33;;;1.65;;
33824;SDS011;20127;48.962;8.342;2023-04-07T11:19:56;4.32;;;2.40;;
33824;SDS011;20127;48.962;8.342;2023-04-07T11:22:58;3.05;;;2.33;;
33824;SDS011;20127;48.962;8.342;2023-04-07T11:26:01;2.22;;;2.03;;
33824;SDS011;20127;48.962;8.342;2023-04-07T11:29:03;1.67;;;1.58;;
33824;SDS011;20127;48.962;8.342;2023-04-07T11:32:05;1.67;;;1.20;;
33824;SDS011;20127;48.962;8.342;2023-04-07T11:35:08;5.13;;;4.72;;
33824;SDS011;20127;48.962;8.342;2023-04-07T11:38:10;2.42;;;2.00;;
33824;SDS011;20127;48.962;8.342;2023-04-07T11:41:14;1.88;;;1.77;;
33824;SDS011;20127;48.962;8.342;2023-04-07T11:44:16;3.22;;;1.58;;
33824;SDS011;20127;48.962;8.342;2023-04-07T11:47:18;2.67;;;1.77;;
33824;SDS011;20127;48.962;8.342;2023-04-07T11:53:40;1.40;;;1.30;;
33824;SDS011;20127;48.962;8.342;2023-04-07T11:56:44;2.15;;;1.63;;
33824;SDS011;20127;48.962;8.342;2023-04-07T11:59:47;1.83;;;1.13;;
33824;SDS011;20127;48.962;8.342;2023-04-07T12:02:48;3.20;;;1.27;;
33824;SDS011;20127;48.962;8.342;2023-04-07T12:05:50;2.70;;;1.17;;
33824;SDS011;20127;48.962;8.342;2023-04-07T12:08:53;1.20;;;0.73;;
33824;SDS011;20127;48.962;8.342;2023-04-07T12:11:56;0.80;;;0.80;;
33824;SDS011;20127;48.962;8.342;2023-04-07T12:14:58;3.15;;;1.02;;
33824;SDS011;20127;48.962;8.342;2023-04-07T12:18:01;2.08;;;1.08;;
33824;SDS011;20127;48.962;8.342;2023-04-07T12:21:03;1.88;;;0.52;;
33824;SDS011;20127;48.962;8.342;2023-04-07T12:24:05;0.73;;;0.57;;
33824;SDS011;20127;48.962;8.342;2023-04-07T12:27:08;1.65;;;1.17;;
33824;SDS011;20127;48.962;8.342;2023-04-07T12:30:11;2.08;;;0.85;;
33824;SDS011;20127;48.962;8.342;2023-04-07T12:33:18;1.23;;;0.95;;
33824;SDS011;20127;48.962;8.342;2023-04-07T12:36:20;0.63;;;0.63;;
33824;SDS011;20127;48.962;8.342;2023-04-07T12:39:22;1.80;;;0.90;;
33824;SDS011;20127;48.962;8.342;2023-04-07T12:42:25;2.97;;;1.33;;
33824;SDS011;20127;48.962;8.342;2023-04-07T12:45:27;1.25;;;0.95;;
33824;SDS011;20127;48.962;8.342;2023-04-07T12:48:30;2.60;;;1.35;;
33824;SDS011;20127;48.962;8.342;2023-04-07T12:51:32;4.70;;;1.30;;
33824;SDS011;20127;48.962;8.342;2023-04-07T12:54:34;4.00;;;1.40;;
33824;SDS011;20127;48.962;8.342;2023-04-07T12:57:37;1.55;;;0.93;;
33824;SDS011;20127;48.962;8.342;2023-04-07T13:00:39;2.90;;;1.40;;
33824;SDS011;20127;48.962;8.342;2023-04-07T13:03:41;3.08;;;1.63;;
33824;SDS011;20127;48.962;8.342;2023-04-07T13:06:43;2.85;;;1.55;;
33824;SDS011;20127;48.962;8.342;2023-04-07T13:09:45;3.67;;;3.38;;
33824;SDS011;20127;48.962;8.342;2023-04-07T13:12:53;2.28;;;1.20;;
33824;SDS011;20127;48.962;8.342;2023-04-07T13:15:57;1.88;;;1.33;;
33824;SDS011;20127;48.962;8.342;2023-04-07T13:18:59;4.30;;;2.05;;
33824;SDS011;20127;48.962;8.342;2023-04-07T13:22:03;4.47;;;1.40;;
33824;SDS011;20127;48.962;8.342;2023-04-07T13:25:05;6.03;;;2.00;;
33824;SDS011;20127;48.962;8.342;2023-04-07T13:28:08;1.98;;;1.30;;
33824;SDS011;20127;48.962;8.342;2023-04-07T13:31:10;1.40;;;1.20;;
33824;SDS011;20127;48.962;8.342;2023-04-07T13:34:14;1.20;;;1.15;;
33824;SDS011;20127;48.962;8.342;2023-04-07T13:37:16;1.38;;;1.25;;
33824;SDS011;20127;48.962;8.342;2023-04-07T13:40:19;1.77;;;1.38;;
33824;SDS011;20127;48.962;8.342;2023-04-07T13:43:22;1.35;;;1.17;;
33824;SDS011;20127;48.962;8.342;2023-04-07T13:46:23;3.45;;;1.67;;
33824;SDS011;20127;48.962;8.342;2023-04-07T13:49:26;2.65;;;1.63;;
33824;SDS011;20127;48.962;8.342;2023-04-07T13:52:28;2.22;;;2.03;;
33824;SDS011;20127;48.962;8.342;2023-04-07T13:55:31;1.60;;;1.50;;
33824;SDS011;20127;48.962;8.342;2023-04-07T13:58:35;3.42;;;1.73;;
33824;SDS011;20127;48.962;8.342;2023-04-07T14:01:36;1.80;;;1.70;;
33824;SDS011;20127;48.962;8.342;2023-04-07T14:04:39;1.70;;;1.48;;
33824;SDS011;20127;48.962;8.342;2023-04-07T14:07:40;1.75;;;1.55;;
33824;SDS011;20127;48.962;8.342;2023-04-07T14:10:42;2.10;;;1.88;;
33824;SDS011;20127;48.962;8.342;2023-04-07T14:13:45;1.52;;;1.42;;
33824;SDS011;20127;48.962;8.342;2023-04-07T14:16:47;5.68;;;5.15;;
33824;SDS011;20127;48.962;8.342;2023-04-07T14:19:50;1.38;;;1.27;;
33824;SDS011;20127;48.962;8.342;2023-04-07T14:22:52;1.88;;;1.63;;
33824;SDS011;20127;48.962;8.342;2023-04-07T14:25:54;2.40;;;2.20;;
33824;SDS011;20127;48.962;8.342;2023-04-07T14:28:57;1.83;;;1.73;;
33824;SDS011;20127;48.962;8.342;2023-04-07T14:31:58;1.67;;;1.52;;
33824;SDS011;20127;48.962;8.342;2023-04-07T14:35:00;2.28;;;1.60;;
33824;SDS011;20127;48.962;8.342;2023-04-07T14:38:03;19.85;;;18.05;;
33824;SDS011;20127;48.962;8.342;2023-04-07T14:41:06;1.80;;;1.70;;
33824;SDS011;20127;48.962;8.342;2023-04-07T14:44:11;2.72;;;1.90;;
33824;SDS011;20127;48.962;8.342;2023-04-07T14:47:13;5.47;;;1.70;;
33824;SDS011;20127;48.962;8.342;2023-04-07T14:50:17;3.15;;;2.38;;
33824;SDS011;20127;48.962;8.342;2023-04-07T14:53:20;3.38;;;1.90;;
33824;SDS011;20127;48.962;8.342;2023-04-07T14:56:23;1.10;;;1.00;;
33824;SDS011;20127;48.962;8.342;2023-04-07T14:59:27;1.85;;;1.50;;
33824;SDS011;20127;48.962;8.342;2023-04-07T15:02:30;2.20;;;1.10;;
33824;SDS011;20127;48.962;8.342;2023-04-07T15:05:33;1.63;;;1.17;;
33824;SDS011;20127;48.962;8.342;2023-04-07T15:08:37;1.98;;;1.20;;
33824;SDS011;20127;48.962;8.342;2023-04-07T15:11:56;1.58;;;1.17;;
33824;SDS011;20127;48.962;8.342;2023-04-07T15:15:11;1.60;;;1.50;;
33824;SDS011;20127;48.962;8.342;2023-04-07T15:18:24;1.50;;;0.95;;
33824;SDS011;20127;48.962;8.342;2023-04-07T15:21:29;1.80;;;1.65;;
33824;SDS011;20127;48.962;8.342;2023-04-07T15:24:38;1.17;;;1.08;;
33824;SDS011;20127;48.962;8.342;2023-04-07T15:27:54;1.52;;;1.33;;
33824;SDS011;20127;48.962;8.342;2023-04-07T15:31:00;1.98;;;1.77;;
33824;SDS011;20127;48.962;8.342;2023-04-07T15:34:07;3.05;;;2.70;;
33824;SDS011;20127;48.962;8.342;2023-04-07T15:37:11;5.05;;;2.72;;
33824;SDS011;20127;48.962;8.342;2023-04-07T15:40:16;1.45;;;1.25;;
33824;SDS011;20127;48.962;8.342;2023-04-07T15:43:37;2.55;;;2.35;;
33824;SDS011;20127;48.962;8.342;2023-04-07T15:50:31;1.45;;;1.35;;
33824;SDS011;20127;48.962;8.342;2023-04-07T15:53:35;1.98;;;1.80;;
33824;SDS011;20127;48.962;8.342;2023-04-07T15:56:48;1.80;;;1.70;;
33824;SDS011;20127;48.962;8.342;2023-04-07T16:00:31;1.92;;;1.80;;
33824;SDS011;20127;48.962;8.342;2023-04-07T16:11:09;1.33;;;1.15;;
33824;SDS011;20127;48.962;8.342;2023-04-07T16:14:27;1.40;;;1.30;;
33824;SDS011;20127;48.962;8.342;2023-04-07T16:17:56;10.77;;;8.45;;
33824;SDS011;20127;48.962;8.342;2023-04-07T16:21:14;2.93;;;2.73;;
33824;SDS011;20127;48.962;8.342;2023-04-07T16:24:19;2.33;;;1.77;;
33824;SDS011;20127;48.962;8.342;2023-04-07T16:39:03;1.40;;;1.30;;
33824;SDS011;20127;48.962;8.342;2023-04-07T16:42:06;0.90;;;0.90;;
33824;SDS011;20127;48.962;8.342;2023-04-07T16:45:21;1.25;;;1.15;;
33824;SDS011;20127;48.962;8.342;2023-04-07T16:48:42;1.95;;;1.45;;
33824;SDS011;20127;48.962;8.342;2023-04-07T16:51:45;1.77;;;1.67;;
33824;SDS011;20127;48.962;8.342;2023-04-07T16:54:46;3.28;;;1.75;;
33824;SDS011;20127;48.962;8.342;2023-04-07T16:57:48;1.38;;;1.27;;
33824;SDS011;20127;48.962;8.342;2023-04-07T17:00:50;1.65;;;1.17;;
33824;SDS011;20127;48.962;8.342;2023-04-07T17:03:56;21.33;;;19.17;;
33824;SDS011;20127;48.962;8.342;2023-04-07T17:11:15;41.85;;;32.53;;
33824;SDS011;20127;48.962;8.342;2023-04-07T17:14:20;77.63;;;58.77;;
33824;SDS011;20127;48.962;8.342;2023-04-07T17:17:26;29.80;;;26.23;;
33824;SDS011;20127;48.962;8.342;2023-04-07T17:20:29;15.63;;;14.00;;
33824;SDS011;20127;48.962;8.342;2023-04-07T17:23:56;11.32;;;10.32;;
33824;SDS011;20127;48.962;8.342;2023-04-07T17:26:59;20.23;;;18.13;;
33824;SDS011;20127;48.962;8.342;2023-04-07T17:30:01;18.70;;;16.98;;
33824;SDS011;20127;48.962;8.342;2023-04-07T17:33:04;11.18;;;10.18;;
33824;SDS011;20127;48.962;8.342;2023-04-07T17:36:07;5.78;;;5.28;;
33824;SDS011;20127;48.962;8.342;2023-04-07T17:39:08;9.63;;;8.73;;
33824;SDS011;20127;48.962;8.342;2023-04-07T17:42:11;4.43;;;4.03;;
33824;SDS011;20127;48.962;8.342;2023-04-07T17:45:13;1.48;;;1.38;;
33824;SDS011;20127;48.962;8.342;2023-04-07T17:48:16;1.98;;;1.88;;
33824;SDS011;20127;48.962;8.342;2023-04-07T17:51:19;1.38;;;1.30;;
33824;SDS011;20127;48.962;8.342;2023-04-07T17:54:39;2.00;;;1.60;;
33824;SDS011;20127;48.962;8.342;2023-04-07T18:36:03;3.55;;;2.33;;
33824;SDS011;20127;48.962;8.342;2023-04-07T18:39:07;0.77;;;0.77;;
33824;SDS011;20127;48.962;8.342;2023-04-07T18:46:06;1.35;;;1.30;;
33824;SDS011;20127;48.962;8.342;2023-04-07T18:49:45;1.90;;;1.80;;
33824;SDS011;20127;48.962;8.342;2023-04-07T18:52:57;3.60;;;1.63;;
33824;SDS011;20127;48.962;8.342;2023-04-07T18:55:58;1.25;;;1.08;;
33824;SDS011;20127;48.962;8.342;2023-04-07T18:59:00;1.75;;;1.65;;
33824;SDS011;20127;48.962;8.342;2023-04-07T19:02:02;1.70;;;1.55;;
33824;SDS011;20127;48.962;8.342;2023-04-07T19:05:04;1.73;;;1.63;;
33824;SDS011;20127;48.962;8.342;2023-04-07T19:08:07;2.13;;;1.58;;
33824;SDS011;20127;48.962;8.342;2023-04-07T19:14:50;3.10;;;1.83;;
33824;SDS011;20127;48.962;8.342;2023-04-07T19:18:28;2.00;;;1.80;;
33824;SDS011;20127;48.962;8.342;2023-04-07T19:22:51;2.38;;;2.17;;
33824;SDS011;20127;48.962;8.342;2023-04-07T19:45:29;2.17;;;1.98;;
33824;SDS011;20127;48.962;8.342;2023-04-07T19:48:53;2.10;;;1.73;;
33824;SDS011;20127;48.962;8.342;2023-04-07T19:52:31;2.97;;;1.70;;
33824;SDS011;20127;48.962;8.342;2023-04-07T19:55:33;2.95;;;2.05;;
33824;SDS011;20127;48.962;8.342;2023-04-07T19:58:34;2.10;;;1.90;;
33824;SDS011;20127;48.962;8.342;2023-04-07T20:01:38;1.52;;;1.42;;
33824;SDS011;20127;48.962;8.342;2023-04-07T20:04:40;2.13;;;1.80;;
33824;SDS011;20127;48.962;8.342;2023-04-07T20:07:42;1.73;;;1.63;;